sensor_id;sensor_type;location;lat;lon;timestamp;pressure;altitude;pressure_sealevel;temperature;humidity
6218;BME280;3142;48.206;11.550;2024-01-30T00:01:00;97135.63;;;5.72;61.59
6218;BME280;3142;48.206;11.550;2024-01-30T00:03:28;97132.75;;;5.65;61.82
6218;BME280;3142;48.206;11.550;2024-01-30T00:05:55;97130.97;;;5.65;61.81
6218;BME280;3142;48.206;11.550;2024-01-30T00:08:22;97134.78;;;5.61;61.89
6218;BME280;3142;48.206;11.550;2024-01-30T00:10:48;97128.91;;;5.50;62.42
6218;BME280;3142;48.206;11.550;2024-01-30T00:13:15;97128.47;;;5.54;62.03
6218;BME280;3142;48.206;11.550;2024-01-30T00:15:43;97135.31;;;5.55;61.87
6218;BME280;3142;48.206;11.550;2024-01-30T00:18:10;97131.34;;;5.51;62.13
6218;BME280;3142;48.206;11.550;2024-01-30T00:20:38;97134.91;;;5.50;61.82
6218;BME280;3142;48.206;11.550;2024-01-30T00:23:04;97134.47;;;5.45;62.31
6218;BME280;3142;48.206;11.550;2024-01-30T00:25:30;97130.09;;;5.46;62.25
6218;BME280;3142;48.206;11.550;2024-01-30T00:27:58;97138.16;;;5.43;62.28
6218;BME280;3142;48.206;11.550;2024-01-30T00:30:24;97135.13;;;5.38;62.27
6218;BME280;3142;48.206;11.550;2024-01-30T00:32:51;97128.72;;;5.42;62.11
6218;BME280;3142;48.206;11.550;2024-01-30T00:35:17;97135.69;;;5.41;62.43
6218;BME280;3142;48.206;11.550;2024-01-30T00:37:45;97126.25;;;5.40;61.99
6218;BME280;3142;48.206;11.550;2024-01-30T00:40:12;97127.91;;;5.41;62.33
6218;BME280;3142;48.206;11.550;2024-01-30T00:42:40;97136.09;;;5.46;62.54
6218;BME280;3142;48.206;11.550;2024-01-30T00:45:12;97130.13;;;5.55;62.44
6218;BME280;3142;48.206;11.550;2024-01-30T00:47:38;97136.16;;;5.65;62.38
6218;BME280;3142;48.206;11.550;2024-01-30T00:50:05;97134.09;;;5.59;62.43
6218;BME280;3142;48.206;11.550;2024-01-30T00:52:32;97132.19;;;5.52;62.67
6218;BME280;3142;48.206;11.550;2024-01-30T00:55:00;97130.53;;;5.51;62.69
6218;BME280;3142;48.206;11.550;2024-01-30T00:57:27;97131.34;;;5.61;62.90
6218;BME280;3142;48.206;11.550;2024-01-30T00:59:53;97127.16;;;5.70;62.79
6218;BME280;3142;48.206;11.550;2024-01-30T01:02:20;97123.88;;;5.68;62.51
6218;BME280;3142;48.206;11.550;2024-01-30T01:04:46;97136.97;;;5.56;62.97
6218;BME280;3142;48.206;11.550;2024-01-30T01:07:12;97136.00;;;5.57;62.81
6218;BME280;3142;48.206;11.550;2024-01-30T01:09:39;97131.66;;;5.68;63.12
6218;BME280;3142;48.206;11.550;2024-01-30T01:12:07;97131.94;;;5.74;63.46
6218;BME280;3142;48.206;11.550;2024-01-30T01:14:33;97133.19;;;5.80;63.72
6218;BME280;3142;48.206;11.550;2024-01-30T01:17:01;97134.00;;;5.80;63.50
6218;BME280;3142;48.206;11.550;2024-01-30T01:19:28;97138.25;;;5.81;63.73
6218;BME280;3142;48.206;11.550;2024-01-30T01:21:54;97134.53;;;5.74;64.14
6218;BME280;3142;48.206;11.550;2024-01-30T01:24:21;97126.88;;;5.63;64.18
6218;BME280;3142;48.206;11.550;2024-01-30T01:26:47;97133.31;;;5.69;64.00
6218;BME280;3142;48.206;11.550;2024-01-30T01:29:15;97130.16;;;5.65;64.08
6218;BME280;3142;48.206;11.550;2024-01-30T01:31:41;97130.97;;;5.65;64.47
6218;BME280;3142;48.206;11.550;2024-01-30T01:34:08;97129.34;;;5.64;64.05
6218;BME280;3142;48.206;11.550;2024-01-30T01:36:35;97128.19;;;5.48;64.15
6218;BME280;3142;48.206;11.550;2024-01-30T01:39:02;97125.13;;;5.33;64.10
6218;BME280;3142;48.206;11.550;2024-01-30T01:41:29;97129.22;;;5.26;63.79
6218;BME280;3142;48.206;11.550;2024-01-30T01:43:56;97130.53;;;5.20;63.55
6218;BME280;3142;48.206;11.550;2024-01-30T01:46:26;97127.66;;;5.14;63.45
6218;BME280;3142;48.206;11.550;2024-01-30T01:48:53;97128.19;;;5.08;63.64
6218;BME280;3142;48.206;11.550;2024-01-30T01:51:20;97130.47;;;5.01;63.55
6218;BME280;3142;48.206;11.550;2024-01-30T01:53:47;97122.63;;;4.91;63.60
6218;BME280;3142;48.206;11.550;2024-01-30T01:56:14;97121.94;;;4.89;63.88
6218;BME280;3142;48.206;11.550;2024-01-30T01:58:41;97129.53;;;5.02;63.87
6218;BME280;3142;48.206;11.550;2024-01-30T02:01:07;97132.72;;;5.15;63.72
6218;BME280;3142;48.206;11.550;2024-01-30T02:03:35;97123.75;;;5.29;63.13
6218;BME280;3142;48.206;11.550;2024-01-30T02:06:02;97128.53;;;5.33;62.78
6218;BME280;3142;48.206;11.550;2024-01-30T02:08:30;97132.69;;;5.36;63.05
6218;BME280;3142;48.206;11.550;2024-01-30T02:10:56;97133.50;;;5.37;62.66
6218;BME280;3142;48.206;11.550;2024-01-30T02:13:23;97125.34;;;5.20;63.13
6218;BME280;3142;48.206;11.550;2024-01-30T02:15:50;97118.44;;;5.21;62.87
6218;BME280;3142;48.206;11.550;2024-01-30T02:18:16;97124.06;;;5.05;63.12
6218;BME280;3142;48.206;11.550;2024-01-30T02:20:44;97130.75;;;4.98;63.47
6218;BME280;3142;48.206;11.550;2024-01-30T02:23:12;97126.78;;;4.94;63.88
6218;BME280;3142;48.206;11.550;2024-01-30T02:25:42;97128.09;;;4.88;63.91
6218;BME280;3142;48.206;11.550;2024-01-30T02:28:10;97128.34;;;4.85;63.36
6218;BME280;3142;48.206;11.550;2024-01-30T02:30:37;97130.88;;;4.75;64.51
6218;BME280;3142;48.206;11.550;2024-01-30T02:33:04;97127.53;;;4.64;64.19
6218;BME280;3142;48.206;11.550;2024-01-30T02:35:30;97123.91;;;4.66;64.35
6218;BME280;3142;48.206;11.550;2024-01-30T02:37:57;97121.94;;;4.59;64.59
6218;BME280;3142;48.206;11.550;2024-01-30T02:40:25;97118.66;;;4.57;64.87
6218;BME280;3142;48.206;11.550;2024-01-30T02:42:51;97119.06;;;4.62;64.31
6218;BME280;3142;48.206;11.550;2024-01-30T02:45:18;97125.69;;;4.75;63.90
6218;BME280;3142;48.206;11.550;2024-01-30T02:47:45;97119.88;;;4.83;63.57
6218;BME280;3142;48.206;11.550;2024-01-30T02:50:12;97121.00;;;4.90;63.30
6218;BME280;3142;48.206;11.550;2024-01-30T02:52:40;97120.38;;;4.98;63.77
6218;BME280;3142;48.206;11.550;2024-01-30T02:55:09;97117.81;;;5.08;63.55
6218;BME280;3142;48.206;11.550;2024-01-30T02:57:36;97110.59;;;5.11;63.47
6218;BME280;3142;48.206;11.550;2024-01-30T03:00:04;97103.63;;;5.12;63.14
6218;BME280;3142;48.206;11.550;2024-01-30T03:02:31;97106.22;;;5.12;63.08
6218;BME280;3142;48.206;11.550;2024-01-30T03:04:58;97106.91;;;5.14;63.19
6218;BME280;3142;48.206;11.550;2024-01-30T03:07:24;97104.00;;;5.07;63.23
6218;BME280;3142;48.206;11.550;2024-01-30T03:09:50;97102.25;;;5.08;63.57
6218;BME280;3142;48.206;11.550;2024-01-30T03:12:18;97103.50;;;5.13;63.21
6218;BME280;3142;48.206;11.550;2024-01-30T03:14:45;97103.63;;;5.12;63.68
6218;BME280;3142;48.206;11.550;2024-01-30T03:17:12;97101.88;;;5.12;63.64
6218;BME280;3142;48.206;11.550;2024-01-30T03:19:38;97100.50;;;5.18;63.46
6218;BME280;3142;48.206;11.550;2024-01-30T03:22:05;97103.97;;;5.28;63.35
6218;BME280;3142;48.206;11.550;2024-01-30T03:24:32;97098.38;;;5.32;63.13
6218;BME280;3142;48.206;11.550;2024-01-30T03:26:58;97103.13;;;5.27;63.12
6218;BME280;3142;48.206;11.550;2024-01-30T03:29:25;97096.81;;;5.20;63.02
6218;BME280;3142;48.206;11.550;2024-01-30T03:31:53;97100.91;;;5.13;62.58
6218;BME280;3142;48.206;11.550;2024-01-30T03:34:18;97105.38;;;5.01;63.06
6218;BME280;3142;48.206;11.550;2024-01-30T03:36:44;97099.16;;;4.93;63.30
6218;BME280;3142;48.206;11.550;2024-01-30T03:39:11;97091.94;;;4.87;63.24
6218;BME280;3142;48.206;11.550;2024-01-30T03:41:37;97098.81;;;4.76;63.26
6218;BME280;3142;48.206;11.550;2024-01-30T03:44:04;97091.38;;;4.62;63.75
6218;BME280;3142;48.206;11.550;2024-01-30T03:46:30;97096.28;;;4.56;63.32
6218;BME280;3142;48.206;11.550;2024-01-30T03:48:58;97091.72;;;4.48;63.71
6218;BME280;3142;48.206;11.550;2024-01-30T03:51:24;97085.03;;;4.45;63.62
6218;BME280;3142;48.206;11.550;2024-01-30T03:53:51;97089.28;;;4.26;64.10
6218;BME280;3142;48.206;11.550;2024-01-30T03:56:17;97086.41;;;4.29;64.09
6218;BME280;3142;48.206;11.550;2024-01-30T03:58:44;97086.03;;;4.33;63.88
6218;BME280;3142;48.206;11.550;2024-01-30T04:01:13;97094.81;;;4.42;63.65
6218;BME280;3142;48.206;11.550;2024-01-30T04:03:39;97095.94;;;4.49;64.19
6218;BME280;3142;48.206;11.550;2024-01-30T04:06:07;97099.06;;;4.43;64.10
6218;BME280;3142;48.206;11.550;2024-01-30T04:08:34;97094.81;;;4.42;64.80
6218;BME280;3142;48.206;11.550;2024-01-30T04:11:03;97098.94;;;4.44;64.69
6218;BME280;3142;48.206;11.550;2024-01-30T04:13:30;97100.31;;;4.49;64.12
6218;BME280;3142;48.206;11.550;2024-01-30T04:15:59;97098.28;;;4.52;64.33
6218;BME280;3142;48.206;11.550;2024-01-30T04:18:25;97098.19;;;4.54;64.15
6218;BME280;3142;48.206;11.550;2024-01-30T04:20:51;97095.25;;;4.47;64.01
6218;BME280;3142;48.206;11.550;2024-01-30T04:23:19;97100.00;;;4.42;64.65
6218;BME280;3142;48.206;11.550;2024-01-30T04:25:46;97099.38;;;4.29;64.26
6218;BME280;3142;48.206;11.550;2024-01-30T04:28:12;97103.88;;;4.27;64.31
6218;BME280;3142;48.206;11.550;2024-01-30T04:30:39;97093.38;;;4.28;64.24
6218;BME280;3142;48.206;11.550;2024-01-30T04:33:06;97097.53;;;4.40;64.63
6218;BME280;3142;48.206;11.550;2024-01-30T04:35:32;97088.03;;;4.51;63.74
6218;BME280;3142;48.206;11.550;2024-01-30T04:37:58;97097.91;;;4.57;63.14
6218;BME280;3142;48.206;11.550;2024-01-30T04:40:26;97096.00;;;4.59;63.68
6218;BME280;3142;48.206;11.550;2024-01-30T04:42:53;97100.56;;;4.66;63.34
6218;BME280;3142;48.206;11.550;2024-01-30T04:45:19;97097.53;;;4.61;63.58
6218;BME280;3142;48.206;11.550;2024-01-30T04:47:46;97094.50;;;4.56;63.25
6218;BME280;3142;48.206;11.550;2024-01-30T04:50:13;97097.91;;;4.57;63.43
6218;BME280;3142;48.206;11.550;2024-01-30T04:52:39;97096.53;;;4.53;63.40
6218;BME280;3142;48.206;11.550;2024-01-30T04:55:06;97100.19;;;4.50;63.56
6218;BME280;3142;48.206;11.550;2024-01-30T04:57:34;97094.88;;;4.52;63.42
6218;BME280;3142;48.206;11.550;2024-01-30T05:00:02;97096.34;;;4.44;63.23
6218;BME280;3142;48.206;11.550;2024-01-30T05:02:30;97101.81;;;4.51;63.65
6218;BME280;3142;48.206;11.550;2024-01-30T05:04:57;97093.09;;;4.52;63.45
6218;BME280;3142;48.206;11.550;2024-01-30T05:07:24;97108.09;;;4.49;63.07
6218;BME280;3142;48.206;11.550;2024-01-30T05:09:50;97107.94;;;4.50;63.09
6218;BME280;3142;48.206;11.550;2024-01-30T05:12:17;97109.97;;;4.46;63.77
6218;BME280;3142;48.206;11.550;2024-01-30T05:14:44;97110.31;;;4.53;63.12
6218;BME280;3142;48.206;11.550;2024-01-30T05:17:11;97105.63;;;4.47;63.31
6218;BME280;3142;48.206;11.550;2024-01-30T05:19:38;97114.28;;;4.36;63.20
6218;BME280;3142;48.206;11.550;2024-01-30T05:22:04;97106.69;;;4.24;63.46
6218;BME280;3142;48.206;11.550;2024-01-30T05:24:31;97106.81;;;4.22;63.60
6218;BME280;3142;48.206;11.550;2024-01-30T05:26:57;97112.69;;;4.24;62.82
6218;BME280;3142;48.206;11.550;2024-01-30T05:29:23;97107.00;;;4.30;63.00
6218;BME280;3142;48.206;11.550;2024-01-30T05:31:51;97111.00;;;4.34;63.54
6218;BME280;3142;48.206;11.550;2024-01-30T05:34:18;97107.19;;;4.38;62.76
6218;BME280;3142;48.206;11.550;2024-01-30T05:36:44;97117.69;;;4.37;62.79
6218;BME280;3142;48.206;11.550;2024-01-30T05:39:11;97114.22;;;4.27;62.85
6218;BME280;3142;48.206;11.550;2024-01-30T05:41:38;97111.41;;;4.19;63.12
6218;BME280;3142;48.206;11.550;2024-01-30T05:44:04;97117.16;;;4.22;63.00
6218;BME280;3142;48.206;11.550;2024-01-30T05:46:31;97109.72;;;4.29;62.95
6218;BME280;3142;48.206;11.550;2024-01-30T05:48:59;97110.63;;;4.39;63.30
6218;BME280;3142;48.206;11.550;2024-01-30T05:51:25;97112.44;;;4.48;62.55
6218;BME280;3142;48.206;11.550;2024-01-30T05:53:51;97114.09;;;4.49;62.93
6218;BME280;3142;48.206;11.550;2024-01-30T05:56:18;97115.97;;;4.47;62.59
6218;BME280;3142;48.206;11.550;2024-01-30T05:58:44;97125.28;;;4.50;62.88
6218;BME280;3142;48.206;11.550;2024-01-30T06:01:11;97123.50;;;4.50;63.37
6218;BME280;3142;48.206;11.550;2024-01-30T06:03:37;97126.69;;;4.54;62.83
6218;BME280;3142;48.206;11.550;2024-01-30T06:06:05;97120.69;;;4.53;62.46
6218;BME280;3142;48.206;11.550;2024-01-30T06:08:32;97117.00;;;4.56;63.03
6218;BME280;3142;48.206;11.550;2024-01-30T06:10:59;97119.84;;;4.53;62.27
6218;BME280;3142;48.206;11.550;2024-01-30T06:13:25;97116.31;;;4.54;62.06
6218;BME280;3142;48.206;11.550;2024-01-30T06:15:52;97124.38;;;4.60;62.43
6218;BME280;3142;48.206;11.550;2024-01-30T06:18:19;97115.50;;;4.53;61.50
6218;BME280;3142;48.206;11.550;2024-01-30T06:20:45;97126.56;;;4.55;61.91
6218;BME280;3142;48.206;11.550;2024-01-30T06:23:13;97114.72;;;4.62;61.88
6218;BME280;3142;48.206;11.550;2024-01-30T06:25:40;97119.53;;;4.67;61.79
6218;BME280;3142;48.206;11.550;2024-01-30T06:28:06;97124.13;;;4.63;60.90
6218;BME280;3142;48.206;11.550;2024-01-30T06:30:33;97119.63;;;4.65;61.32
6218;BME280;3142;48.206;11.550;2024-01-30T06:32:59;97134.13;;;4.68;61.10
6218;BME280;3142;48.206;11.550;2024-01-30T06:35:26;97129.63;;;4.70;60.59
6218;BME280;3142;48.206;11.550;2024-01-30T06:37:54;97142.47;;;4.71;60.81
6218;BME280;3142;48.206;11.550;2024-01-30T06:40:21;97143.16;;;4.73;60.76
6218;BME280;3142;48.206;11.550;2024-01-30T06:42:48;97136.59;;;4.69;60.83
6218;BME280;3142;48.206;11.550;2024-01-30T06:45:14;97142.59;;;4.70;60.36
6218;BME280;3142;48.206;11.550;2024-01-30T06:47:41;97146.69;;;4.52;61.33
6218;BME280;3142;48.206;11.550;2024-01-30T06:50:08;97151.06;;;4.30;61.86
6218;BME280;3142;48.206;11.550;2024-01-30T06:52:34;97146.88;;;4.18;62.35
6218;BME280;3142;48.206;11.550;2024-01-30T06:55:01;97151.81;;;4.10;62.61
6218;BME280;3142;48.206;11.550;2024-01-30T06:57:29;97150.44;;;4.06;62.99
6218;BME280;3142;48.206;11.550;2024-01-30T06:59:56;97159.41;;;4.02;62.27
6218;BME280;3142;48.206;11.550;2024-01-30T07:02:22;97154.78;;;4.05;62.73
6218;BME280;3142;48.206;11.550;2024-01-30T07:04:48;97151.63;;;4.02;62.72
6218;BME280;3142;48.206;11.550;2024-01-30T07:07:15;97150.81;;;4.01;62.56
6218;BME280;3142;48.206;11.550;2024-01-30T07:09:42;97151.97;;;3.97;63.05
6218;BME280;3142;48.206;11.550;2024-01-30T07:12:08;97147.16;;;4.04;63.30
6218;BME280;3142;48.206;11.550;2024-01-30T07:14:36;97146.56;;;4.32;62.19
6218;BME280;3142;48.206;11.550;2024-01-30T07:17:03;97141.72;;;4.60;62.06
6218;BME280;3142;48.206;11.550;2024-01-30T07:19:29;97150.31;;;4.81;61.55
6218;BME280;3142;48.206;11.550;2024-01-30T07:21:56;97147.69;;;5.02;61.35
6218;BME280;3142;48.206;11.550;2024-01-30T07:24:22;97147.78;;;5.31;61.40
6218;BME280;3142;48.206;11.550;2024-01-30T07:26:49;97155.25;;;5.55;61.46
6218;BME280;3142;48.206;11.550;2024-01-30T07:29:15;97153.78;;;5.72;60.88
6218;BME280;3142;48.206;11.550;2024-01-30T07:31:43;97145.94;;;5.92;60.09
6218;BME280;3142;48.206;11.550;2024-01-30T07:34:09;97156.63;;;6.09;59.19
6218;BME280;3142;48.206;11.550;2024-01-30T07:36:36;97151.03;;;6.13;59.12
6218;BME280;3142;48.206;11.550;2024-01-30T07:39:03;97147.91;;;6.19;58.87
6218;BME280;3142;48.206;11.550;2024-01-30T07:41:29;97158.25;;;6.29;58.42
6218;BME280;3142;48.206;11.550;2024-01-30T07:43:57;97154.84;;;6.48;57.79
6218;BME280;3142;48.206;11.550;2024-01-30T07:46:23;97160.84;;;6.68;57.36
6218;BME280;3142;48.206;11.550;2024-01-30T07:48:51;97161.13;;;6.74;57.40
6218;BME280;3142;48.206;11.550;2024-01-30T07:51:17;97161.59;;;6.97;57.28
6218;BME280;3142;48.206;11.550;2024-01-30T07:53:44;97156.50;;;7.15;57.03
6218;BME280;3142;48.206;11.550;2024-01-30T07:56:10;97157.91;;;7.37;56.86
6218;BME280;3142;48.206;11.550;2024-01-30T07:58:37;97167.63;;;7.45;56.78
6218;BME280;3142;48.206;11.550;2024-01-30T08:01:03;97162.63;;;7.61;56.50
6218;BME280;3142;48.206;11.550;2024-01-30T08:03:30;97168.47;;;7.72;56.19
6218;BME280;3142;48.206;11.550;2024-01-30T08:05:57;97165.59;;;7.93;54.64
6218;BME280;3142;48.206;11.550;2024-01-30T08:08:24;97165.00;;;7.99;54.90
6218;BME280;3142;48.206;11.550;2024-01-30T08:10:51;97169.09;;;8.02;54.67
6218;BME280;3142;48.206;11.550;2024-01-30T08:13:18;97167.78;;;8.16;55.15
6218;BME280;3142;48.206;11.550;2024-01-30T08:15:44;97168.03;;;8.40;54.04
6218;BME280;3142;48.206;11.550;2024-01-30T08:18:11;97165.28;;;8.42;54.18
6218;BME280;3142;48.206;11.550;2024-01-30T08:20:37;97166.84;;;8.52;53.86
6218;BME280;3142;48.206;11.550;2024-01-30T08:23:05;97172.03;;;8.70;54.10
6218;BME280;3142;48.206;11.550;2024-01-30T08:25:31;97165.97;;;8.87;53.43
6218;BME280;3142;48.206;11.550;2024-01-30T08:27:58;97167.00;;;8.95;53.62
6218;BME280;3142;48.206;11.550;2024-01-30T08:30:25;97163.41;;;8.96;53.12
6218;BME280;3142;48.206;11.550;2024-01-30T08:32:51;97161.72;;;9.12;52.77
6218;BME280;3142;48.206;11.550;2024-01-30T08:35:18;97165.91;;;9.31;53.31
6218;BME280;3142;48.206;11.550;2024-01-30T08:37:44;97164.72;;;9.52;52.42
6218;BME280;3142;48.206;11.550;2024-01-30T08:40:12;97163.13;;;9.67;52.32
6218;BME280;3142;48.206;11.550;2024-01-30T08:42:38;97158.97;;;9.90;51.06
6218;BME280;3142;48.206;11.550;2024-01-30T08:45:05;97155.25;;;10.01;51.02
6218;BME280;3142;48.206;11.550;2024-01-30T08:47:32;97149.44;;;10.23;50.79
6218;BME280;3142;48.206;11.550;2024-01-30T08:49:59;97151.53;;;10.28;50.72
6218;BME280;3142;48.206;11.550;2024-01-30T08:52:25;97157.94;;;10.33;50.46
6218;BME280;3142;48.206;11.550;2024-01-30T08:54:52;97160.56;;;10.50;50.36
6218;BME280;3142;48.206;11.550;2024-01-30T08:57:19;97154.69;;;10.72;49.65
6218;BME280;3142;48.206;11.550;2024-01-30T08:59:46;97159.59;;;10.91;49.13
6218;BME280;3142;48.206;11.550;2024-01-30T09:02:13;97160.53;;;11.07;48.94
6218;BME280;3142;48.206;11.550;2024-01-30T09:04:41;97163.13;;;11.23;47.65
6218;BME280;3142;48.206;11.550;2024-01-30T09:07:09;97168.66;;;11.36;47.17
6218;BME280;3142;48.206;11.550;2024-01-30T09:09:35;97165.50;;;11.49;46.74
6218;BME280;3142;48.206;11.550;2024-01-30T09:12:02;97171.72;;;11.56;47.10
6218;BME280;3142;48.206;11.550;2024-01-30T09:14:33;97169.56;;;11.68;47.29
6218;BME280;3142;48.206;11.550;2024-01-30T09:17:00;97170.84;;;11.80;46.99
6218;BME280;3142;48.206;11.550;2024-01-30T09:19:28;97174.16;;;12.05;47.23
6218;BME280;3142;48.206;11.550;2024-01-30T09:21:54;97172.91;;;12.24;46.36
6218;BME280;3142;48.206;11.550;2024-01-30T09:24:21;97179.16;;;12.45;46.83
6218;BME280;3142;48.206;11.550;2024-01-30T09:26:47;97176.75;;;12.59;45.96
6218;BME280;3142;48.206;11.550;2024-01-30T09:29:14;97178.00;;;12.71;45.28
6218;BME280;3142;48.206;11.550;2024-01-30T09:31:44;97178.41;;;12.83;44.73
6218;BME280;3142;48.206;11.550;2024-01-30T09:34:11;97178.97;;;12.93;45.68
6218;BME280;3142;48.206;11.550;2024-01-30T09:36:37;97175.31;;;13.17;44.97
6218;BME280;3142;48.206;11.550;2024-01-30T09:39:04;97176.69;;;13.42;44.59
6218;BME280;3142;48.206;11.550;2024-01-30T09:41:32;97174.81;;;13.51;44.50
6218;BME280;3142;48.206;11.550;2024-01-30T09:44:00;97180.16;;;13.72;44.41
6218;BME280;3142;48.206;11.550;2024-01-30T09:46:28;97181.25;;;13.78;44.72
6218;BME280;3142;48.206;11.550;2024-01-30T09:48:57;97180.97;;;13.87;44.76
6218;BME280;3142;48.206;11.550;2024-01-30T09:51:25;97175.41;;;13.97;43.12
6218;BME280;3142;48.206;11.550;2024-01-30T09:53:53;97181.53;;;14.19;43.94
6218;BME280;3142;48.206;11.550;2024-01-30T09:56:20;97174.16;;;14.29;43.51
6218;BME280;3142;48.206;11.550;2024-01-30T09:58:47;97172.19;;;14.52;42.74
6218;BME280;3142;48.206;11.550;2024-01-30T10:01:14;97173.50;;;14.63;41.32
6218;BME280;3142;48.206;11.550;2024-01-30T10:03:43;97176.59;;;14.67;41.17
6218;BME280;3142;48.206;11.550;2024-01-30T10:06:11;97180.53;;;14.77;40.53
6218;BME280;3142;48.206;11.550;2024-01-30T10:08:38;97178.47;;;14.94;40.76
6218;BME280;3142;48.206;11.550;2024-01-30T10:11:04;97167.84;;;15.09;40.72
6218;BME280;3142;48.206;11.550;2024-01-30T10:13:31;97168.75;;;15.23;40.99
6218;BME280;3142;48.206;11.550;2024-01-30T10:15:59;97170.56;;;15.22;40.59
6218;BME280;3142;48.206;11.550;2024-01-30T10:18:27;97169.06;;;15.41;40.34
6218;BME280;3142;48.206;11.550;2024-01-30T10:20:54;97168.53;;;15.52;40.05
6218;BME280;3142;48.206;11.550;2024-01-30T10:23:22;97158.47;;;15.62;40.10
6218;BME280;3142;48.206;11.550;2024-01-30T10:25:49;97163.84;;;15.82;39.84
6218;BME280;3142;48.206;11.550;2024-01-30T10:28:16;97158.41;;;15.97;40.04
6218;BME280;3142;48.206;11.550;2024-01-30T10:30:43;97147.25;;;16.02;39.67
6218;BME280;3142;48.206;11.550;2024-01-30T10:33:09;97150.31;;;16.05;39.49
6218;BME280;3142;48.206;11.550;2024-01-30T10:35:36;97145.09;;;16.18;39.24
6218;BME280;3142;48.206;11.550;2024-01-30T10:38:03;97140.25;;;16.35;39.29
6218;BME280;3142;48.206;11.550;2024-01-30T10:40:33;97136.81;;;16.54;38.99
6218;BME280;3142;48.206;11.550;2024-01-30T10:43:01;97131.34;;;16.63;38.96
6218;BME280;3142;48.206;11.550;2024-01-30T10:45:28;97137.88;;;16.80;38.57
6218;BME280;3142;48.206;11.550;2024-01-30T10:47:58;97123.44;;;16.96;38.63
6218;BME280;3142;48.206;11.550;2024-01-30T10:50:26;97125.69;;;17.05;37.44
6218;BME280;3142;48.206;11.550;2024-01-30T10:52:54;97110.63;;;16.99;37.28
6218;BME280;3142;48.206;11.550;2024-01-30T10:55:21;97112.25;;;17.07;36.98
6218;BME280;3142;48.206;11.550;2024-01-30T10:57:50;97103.88;;;17.10;36.68
6218;BME280;3142;48.206;11.550;2024-01-30T11:00:17;97105.94;;;16.68;35.64
6218;BME280;3142;48.206;11.550;2024-01-30T11:02:48;97114.84;;;16.34;35.72
6218;BME280;3142;48.206;11.550;2024-01-30T11:05:23;97105.31;;;16.46;34.98
6218;BME280;3142;48.206;11.550;2024-01-30T11:07:50;97105.56;;;16.78;34.53
6218;BME280;3142;48.206;11.550;2024-01-30T11:10:17;97101.66;;;17.07;34.55
6218;BME280;3142;48.206;11.550;2024-01-30T11:12:45;97101.03;;;17.18;34.36
6218;BME280;3142;48.206;11.550;2024-01-30T11:15:15;97099.03;;;17.07;34.04
6218;BME280;3142;48.206;11.550;2024-01-30T11:17:42;97099.41;;;17.17;33.41
6218;BME280;3142;48.206;11.550;2024-01-30T11:20:10;97094.94;;;17.11;33.21
6218;BME280;3142;48.206;11.550;2024-01-30T11:22:37;97089.06;;;17.15;32.87
6218;BME280;3142;48.206;11.550;2024-01-30T11:25:04;97091.00;;;17.40;33.57
6218;BME280;3142;48.206;11.550;2024-01-30T11:27:30;97085.63;;;17.66;33.84
6218;BME280;3142;48.206;11.550;2024-01-30T11:30:01;97083.53;;;17.88;33.97
6218;BME280;3142;48.206;11.550;2024-01-30T11:32:29;97078.13;;;18.08;33.38
6218;BME280;3142;48.206;11.550;2024-01-30T11:34:55;97079.72;;;18.09;33.54
6218;BME280;3142;48.206;11.550;2024-01-30T11:37:24;97072.94;;;18.20;33.62
6218;BME280;3142;48.206;11.550;2024-01-30T11:39:53;97067.34;;;18.10;33.43
6218;BME280;3142;48.206;11.550;2024-01-30T11:42:19;97077.38;;;17.94;33.74
6218;BME280;3142;48.206;11.550;2024-01-30T11:44:48;97073.84;;;17.69;33.87
6218;BME280;3142;48.206;11.550;2024-01-30T11:47:14;97071.63;;;17.59;34.42
6218;BME280;3142;48.206;11.550;2024-01-30T11:49:43;97064.25;;;17.03;34.65
6218;BME280;3142;48.206;11.550;2024-01-30T11:52:10;97065.88;;;16.58;34.92
6218;BME280;3142;48.206;11.550;2024-01-30T11:54:39;97072.16;;;16.24;35.20
6218;BME280;3142;48.206;11.550;2024-01-30T11:57:05;97071.69;;;16.00;34.82
6218;BME280;3142;48.206;11.550;2024-01-30T11:59:32;97072.91;;;15.91;35.47
6218;BME280;3142;48.206;11.550;2024-01-30T12:01:58;97063.13;;;15.85;35.49
6218;BME280;3142;48.206;11.550;2024-01-30T12:04:28;97068.41;;;15.85;35.60
6218;BME280;3142;48.206;11.550;2024-01-30T12:06:56;97064.56;;;15.81;36.44
6218;BME280;3142;48.206;11.550;2024-01-30T12:09:22;97067.59;;;15.85;36.38
6218;BME280;3142;48.206;11.550;2024-01-30T12:11:49;97059.09;;;16.03;36.27
6218;BME280;3142;48.206;11.550;2024-01-30T12:14:16;97053.25;;;16.27;36.28
6218;BME280;3142;48.206;11.550;2024-01-30T12:16:48;97048.59;;;16.62;35.40
6218;BME280;3142;48.206;11.550;2024-01-30T12:19:21;97046.78;;;16.82;35.34
6218;BME280;3142;48.206;11.550;2024-01-30T12:21:53;97048.00;;;16.86;35.33
6218;BME280;3142;48.206;11.550;2024-01-30T12:24:21;97048.59;;;17.02;35.14
6218;BME280;3142;48.206;11.550;2024-01-30T12:26:48;97040.84;;;17.07;35.13
6218;BME280;3142;48.206;11.550;2024-01-30T12:29:14;97036.81;;;16.84;34.71
6218;BME280;3142;48.206;11.550;2024-01-30T12:31:42;97036.81;;;16.65;35.23
6218;BME280;3142;48.206;11.550;2024-01-30T12:34:09;97030.72;;;16.51;34.83
6218;BME280;3142;48.206;11.550;2024-01-30T12:36:35;97026.66;;;16.48;35.11
6218;BME280;3142;48.206;11.550;2024-01-30T12:39:02;97027.47;;;16.55;35.13
6218;BME280;3142;48.206;11.550;2024-01-30T12:41:30;97017.72;;;16.69;34.96
6218;BME280;3142;48.206;11.550;2024-01-30T12:43:57;97019.91;;;16.85;35.13
6218;BME280;3142;48.206;11.550;2024-01-30T12:46:27;97019.72;;;16.94;34.55
6218;BME280;3142;48.206;11.550;2024-01-30T12:48:53;97025.44;;;16.91;35.34
6218;BME280;3142;48.206;11.550;2024-01-30T12:51:20;97020.16;;;16.77;35.17
6218;BME280;3142;48.206;11.550;2024-01-30T12:53:46;97015.28;;;16.68;35.80
6218;BME280;3142;48.206;11.550;2024-01-30T12:56:13;97012.41;;;16.56;36.13
6218;BME280;3142;48.206;11.550;2024-01-30T12:58:42;97014.25;;;16.49;36.03
6218;BME280;3142;48.206;11.550;2024-01-30T13:01:09;97015.28;;;16.41;36.06
6218;BME280;3142;48.206;11.550;2024-01-30T13:03:35;97012.63;;;16.48;35.67
6218;BME280;3142;48.206;11.550;2024-01-30T13:06:02;97014.06;;;16.70;36.14
6218;BME280;3142;48.206;11.550;2024-01-30T13:08:29;97013.63;;;16.80;36.00
6218;BME280;3142;48.206;11.550;2024-01-30T13:10:55;97004.47;;;16.89;35.75
6218;BME280;3142;48.206;11.550;2024-01-30T13:13:21;97018.47;;;16.96;35.97
6218;BME280;3142;48.206;11.550;2024-01-30T13:15:50;97015.88;;;16.90;35.94